createdAt,value
2023-10-23T00:00:03.647Z,11.20
2023-10-23T00:05:13.596Z,11.20
2023-10-23T00:10:16.381Z,11.10
2023-10-23T00:15:18.445Z,11.00
2023-10-23T00:20:21.557Z,11.00
2023-10-23T00:25:23.762Z,10.70
2023-10-23T00:30:25.955Z,10.70
2023-10-23T00:35:28.080Z,10.60
2023-10-23T00:45:33.521Z,10.40
2023-10-23T00:50:36.098Z,10.30
2023-10-23T01:00:41.799Z,10.20
2023-10-23T01:05:44.751Z,10.10
2023-10-23T01:10:47.437Z,10.10
2023-10-23T01:15:50.042Z,10.10
2023-10-23T01:20:52.310Z,10.00
2023-10-23T01:30:57.322Z,10.10
2023-10-23T01:35:59.531Z,10.10
2023-10-23T01:41:01.892Z,10.00
2023-10-23T01:46:04.247Z,10.00
2023-10-23T01:51:06.448Z,10.00
2023-10-23T01:56:09.498Z,9.90
2023-10-23T02:01:34.074Z,9.90
2023-10-23T02:06:36.369Z,9.90
2023-10-23T02:11:38.522Z,9.80
2023-10-23T02:16:40.787Z,9.80
2023-10-23T02:21:50.528Z,9.80
2023-10-23T02:26:55.351Z,9.60
2023-10-23T02:37:00.027Z,9.60
2023-10-23T02:47:05.104Z,9.60
2023-10-23T02:52:07.259Z,9.50
2023-10-23T02:57:09.341Z,9.50
2023-10-23T03:02:11.473Z,9.50
2023-10-23T03:07:14.687Z,9.50
2023-10-23T03:12:16.807Z,9.40
2023-10-23T03:17:19.623Z,9.40
2023-10-23T03:22:21.773Z,9.40
2023-10-23T03:27:23.924Z,9.50
2023-10-23T03:32:26.341Z,9.40
2023-10-23T03:42:30.953Z,9.40
2023-10-23T03:47:33.177Z,9.40
2023-10-23T03:52:35.304Z,9.40
2023-10-23T03:57:37.411Z,9.40
2023-10-23T04:02:39.616Z,9.30
2023-10-23T04:12:44.356Z,9.10
2023-10-23T04:17:46.785Z,9.00
2023-10-23T04:27:51.521Z,8.90
2023-10-23T04:32:54.022Z,8.90
2023-10-23T04:37:56.126Z,8.70
2023-10-23T04:42:58.244Z,8.70
2023-10-23T04:48:00.408Z,8.70
2023-10-23T04:53:03.064Z,8.60
2023-10-23T04:58:05.674Z,8.60
2023-10-23T05:03:09.734Z,8.50
2023-10-23T05:08:11.890Z,8.50
2023-10-23T05:23:19.042Z,8.50
2023-10-23T05:28:21.138Z,8.40
2023-10-23T05:33:23.589Z,8.40
2023-10-23T05:38:25.704Z,8.40
2023-10-23T05:43:28.532Z,8.40
2023-10-23T05:48:32.113Z,8.40
2023-10-23T05:53:35.804Z,8.30
2023-10-23T05:58:38.208Z,8.40
2023-10-23T06:03:40.438Z,8.40
2023-10-23T06:08:42.818Z,8.30
2023-10-23T06:13:44.891Z,8.30
2023-10-23T06:18:47.003Z,8.30
2023-10-23T06:28:51.878Z,8.20
2023-10-23T06:33:54.372Z,8.20
2023-10-23T06:38:56.827Z,8.10
2023-10-23T06:43:58.930Z,8.10
2023-10-23T06:49:00.990Z,8.20
2023-10-23T06:54:05.133Z,8.20
2023-10-23T06:59:07.271Z,8.30
2023-10-23T07:04:09.562Z,8.40
2023-10-23T07:09:11.939Z,8.50
2023-10-23T07:14:15.241Z,8.60
2023-10-23T07:19:17.327Z,8.70
2023-10-23T07:29:22.125Z,9.00
2023-10-23T07:34:24.325Z,9.10
2023-10-23T07:39:26.849Z,9.30
2023-10-23T07:44:28.940Z,9.50
2023-10-23T07:49:31.086Z,9.70
2023-10-23T07:54:33.281Z,9.90
2023-10-23T07:59:35.451Z,10.10
2023-10-23T08:04:37.779Z,10.30
2023-10-23T08:09:40.325Z,10.50
2023-10-23T08:14:42.668Z,10.70
2023-10-23T08:19:44.952Z,10.90
2023-10-23T08:34:55.961Z,11.60
2023-10-23T08:45:00.703Z,12.10
2023-10-23T08:50:04.425Z,12.30
2023-10-23T08:55:11.386Z,12.50
2023-10-23T09:00:14.297Z,12.70
2023-10-23T09:10:24.220Z,13.10
2023-10-23T09:15:26.584Z,13.30
2023-10-23T09:20:29.053Z,13.50
2023-10-23T09:25:31.234Z,13.60
2023-10-23T09:30:33.576Z,13.70
2023-10-23T09:35:35.651Z,13.90
2023-10-23T09:40:37.783Z,14.00
2023-10-23T09:45:41.336Z,14.20
2023-10-23T09:50:46.167Z,14.40
2023-10-23T09:55:50.831Z,14.50
2023-10-23T10:00:57.154Z,14.70
2023-10-23T10:06:10.323Z,14.70
2023-10-23T10:16:16.741Z,14.90
2023-10-23T10:21:23.911Z,15.00
2023-10-23T10:26:26.625Z,15.20
2023-10-23T10:31:28.911Z,15.20
2023-10-23T10:41:52.949Z,15.30
2023-10-23T10:51:59.107Z,15.40
2023-10-23T10:57:01.248Z,15.50
2023-10-23T11:02:04.229Z,15.40
2023-10-23T11:07:07.884Z,15.50
2023-10-23T11:12:10.075Z,15.50
2023-10-23T11:17:13.221Z,14.50
2023-10-23T11:22:16.975Z,15.70
2023-10-23T11:32:21.874Z,15.90
2023-10-23T11:37:24.064Z,15.90
2023-10-23T11:42:26.238Z,16.00
2023-10-23T11:47:28.515Z,15.90
2023-10-23T11:52:30.826Z,16.10
2023-10-23T12:02:37.349Z,16.10
2023-10-23T12:07:44.777Z,16.10
2023-10-23T12:12:48.106Z,16.20
2023-10-23T12:17:51.884Z,16.20
2023-10-23T12:22:54.038Z,16.40
2023-10-23T12:27:58.576Z,16.60
2023-10-23T12:33:16.720Z,16.90
2023-10-23T12:38:24.922Z,16.90
2023-10-23T12:43:27.176Z,17.00
2023-10-23T12:53:32.061Z,17.40
2023-10-23T13:03:37.103Z,17.50
2023-10-23T13:08:40.605Z,17.40
2023-10-23T13:13:42.751Z,17.40
2023-10-23T13:18:53.749Z,17.40
2023-10-23T13:23:56.474Z,17.40
2023-10-23T13:28:59.030Z,17.40
2023-10-23T13:39:07.154Z,17.30
2023-10-23T13:44:09.463Z,17.30
2023-10-23T13:49:11.829Z,17.30
2023-10-23T13:54:14.215Z,17.20
2023-10-23T13:59:16.363Z,17.10
2023-10-23T14:04:18.637Z,17.00
2023-10-23T14:09:41.850Z,16.90
2023-10-23T14:14:43.196Z,16.70
2023-10-23T14:19:48.757Z,16.60
2023-10-23T14:24:51.931Z,16.50
2023-10-23T14:29:54.102Z,16.50
2023-10-23T14:39:59.550Z,16.40
2023-10-23T14:45:04.938Z,16.30
2023-10-23T14:50:08.186Z,16.30
2023-10-23T14:55:10.373Z,16.30
2023-10-23T15:00:12.967Z,16.20
2023-10-23T15:05:15.263Z,16.30
2023-10-23T15:15:24.994Z,16.30
2023-10-23T15:25:33.184Z,16.30
2023-10-23T15:30:35.449Z,16.30
2023-10-23T15:35:37.835Z,16.20
2023-10-23T15:40:40.077Z,16.20
2023-10-23T15:45:42.359Z,16.30
2023-10-23T15:50:44.501Z,16.10
2023-10-23T15:55:48.091Z,16.00
2023-10-23T16:00:53.932Z,16.00
2023-10-23T16:06:08.780Z,15.90
2023-10-23T16:11:10.891Z,15.90
2023-10-23T16:16:16.793Z,15.80
2023-10-23T16:21:20.274Z,15.80
2023-10-23T16:26:22.952Z,15.80
2023-10-23T16:36:28.230Z,15.70
2023-10-23T16:41:31.227Z,15.70
2023-10-23T16:46:34.395Z,15.60
2023-10-23T16:51:36.619Z,15.60
2023-10-23T16:56:38.901Z,15.50
2023-10-23T17:01:41.152Z,15.50
2023-10-23T17:06:43.502Z,15.50
2023-10-23T17:11:46.086Z,15.50
2023-10-23T17:16:48.401Z,15.50
2023-10-23T17:21:50.532Z,15.50
2023-10-23T17:26:52.704Z,15.40
2023-10-23T17:31:54.987Z,15.40
2023-10-23T17:42:01.445Z,15.40
2023-10-23T17:47:04.685Z,15.40
2023-10-23T17:52:07.102Z,15.40
2023-10-23T17:57:09.276Z,15.40
2023-10-23T18:02:11.483Z,15.40
2023-10-23T18:07:14.380Z,15.30
2023-10-23T18:12:31.209Z,15.30
2023-10-23T18:17:37.649Z,15.30
2023-10-23T18:22:40.112Z,15.30
2023-10-23T18:32:44.854Z,15.40
2023-10-23T18:42:54.842Z,15.40
2023-10-23T18:47:58.054Z,15.40
2023-10-23T18:53:01.536Z,15.30
2023-10-23T19:03:06.399Z,15.40
2023-10-23T19:08:10.386Z,15.40
2023-10-23T19:13:13.963Z,15.40
2023-10-23T19:18:19.407Z,15.40
2023-10-23T19:23:23.936Z,15.40
2023-10-23T19:28:27.465Z,15.40
2023-10-23T19:33:30.091Z,15.30
2023-10-23T19:38:32.514Z,15.40
2023-10-23T19:43:42.588Z,15.30
2023-10-23T19:48:46.307Z,15.30
2023-10-23T19:53:53.280Z,15.30
2023-10-23T19:58:57.048Z,15.30
2023-10-23T20:03:59.482Z,15.30
2023-10-23T20:14:04.903Z,15.30
2023-10-23T20:19:08.863Z,15.30
2023-10-23T20:24:12.954Z,15.30
2023-10-23T20:29:15.078Z,15.40
2023-10-23T20:34:17.477Z,15.40
2023-10-23T20:39:19.768Z,15.40
2023-10-23T20:44:21.870Z,15.40
2023-10-23T20:49:24.056Z,15.40
2023-10-23T20:54:26.161Z,15.40
2023-10-23T20:59:28.263Z,15.50
2023-10-23T21:04:30.447Z,15.50
2023-10-23T21:09:33.095Z,15.50
2023-10-23T21:14:47.278Z,15.50
2023-10-23T21:19:49.450Z,15.50
2023-10-23T21:24:51.711Z,15.60
2023-10-23T21:29:53.847Z,15.50
2023-10-23T21:34:55.992Z,15.50
2023-10-23T21:45:00.714Z,15.40
2023-10-23T21:50:03.219Z,15.40
2023-10-23T22:05:33.274Z,15.20
2023-10-23T22:10:35.649Z,15.30
2023-10-23T22:15:37.916Z,15.10
2023-10-23T22:20:42.319Z,15.10
2023-10-23T22:25:44.526Z,15.00
2023-10-23T22:30:47.595Z,15.00
2023-10-23T22:35:49.820Z,14.90
2023-10-23T22:40:52.287Z,14.90
2023-10-23T22:46:02.159Z,14.90
2023-10-23T22:51:06.652Z,14.80
2023-10-23T22:56:11.876Z,14.80
2023-10-23T23:01:14.746Z,14.90
2023-10-23T23:06:19.760Z,14.80
2023-10-23T23:11:22.067Z,14.90
2023-10-23T23:16:26.298Z,15.00
2023-10-23T23:21:30.080Z,15.10
2023-10-23T23:31:34.761Z,15.20
2023-10-23T23:36:37.124Z,15.20
2023-10-23T23:41:39.248Z,15.20
2023-10-23T23:46:42.367Z,15.10
2023-10-23T23:51:44.567Z,15.10
